createdAt,value
2022-09-28T00:01:53.858Z,7.20
2022-09-28T00:04:57.534Z,6.90
2022-09-28T00:08:01.183Z,6.60
2022-09-28T00:11:06.219Z,7.25
2022-09-28T00:14:10.675Z,7.50
2022-09-28T00:17:16.510Z,7.20
2022-09-28T00:20:21.623Z,6.93
2022-09-28T00:23:25.250Z,7.25
2022-09-28T00:26:29.547Z,7.53
2022-09-28T00:29:35.669Z,7.40
2022-09-28T00:32:41.190Z,6.82
2022-09-28T00:35:46.439Z,7.93
2022-09-28T00:38:51.081Z,7.38
2022-09-28T00:41:55.589Z,7.97
2022-09-28T00:45:00.204Z,8.27
2022-09-28T00:48:06.024Z,7.60
2022-09-28T00:51:12.615Z,7.05
2022-09-28T00:54:17.634Z,7.85
2022-09-28T00:57:23.151Z,7.55
2022-09-28T01:00:27.143Z,7.72
2022-09-28T01:06:40.322Z,8.02
2022-09-28T01:09:45.241Z,8.35
2022-09-28T01:12:48.874Z,8.63
2022-09-28T01:16:01.654Z,9.18
2022-09-28T01:19:23.882Z,9.32
2022-09-28T01:22:46.675Z,9.07
2022-09-28T01:25:56.682Z,9.98
2022-09-28T01:29:07.436Z,10.35
2022-09-28T01:32:18.287Z,9.45
2022-09-28T01:35:26.646Z,10.18
2022-09-28T01:38:33.076Z,10.07
2022-09-28T01:41:39.706Z,10.70
2022-09-28T01:44:48.902Z,11.55
2022-09-28T01:47:55.662Z,11.90
2022-09-28T01:51:02.070Z,11.55
2022-09-28T01:54:12.115Z,11.32
2022-09-28T01:57:23.466Z,10.98
2022-09-28T02:00:29.883Z,10.55
2022-09-28T02:03:40.297Z,10.57
2022-09-28T02:06:49.362Z,11.30
2022-09-28T02:09:57.250Z,11.10
2022-09-28T02:13:05.798Z,10.55
2022-09-28T02:16:18.611Z,11.32
2022-09-28T02:19:25.678Z,11.98
2022-09-28T02:22:35.136Z,11.55
2022-09-28T02:25:42.258Z,11.23
2022-09-28T02:28:46.800Z,11.73
2022-09-28T02:31:53.195Z,12.07
2022-09-28T02:34:57.237Z,11.52
2022-09-28T02:38:00.888Z,11.85
2022-09-28T02:41:08.282Z,12.32
2022-09-28T02:44:24.807Z,10.75
2022-09-28T02:47:57.865Z,11.18
2022-09-28T02:51:10.665Z,11.52
2022-09-28T02:54:47.965Z,12.35
2022-09-28T02:58:07.192Z,12.57
2022-09-28T03:01:21.027Z,12.13
2022-09-28T03:04:33.936Z,12.18
2022-09-28T03:07:41.255Z,11.68
2022-09-28T03:10:48.715Z,11.98
2022-09-28T03:13:53.418Z,11.65
2022-09-28T03:17:01.066Z,11.88
2022-09-28T03:20:08.062Z,11.52
2022-09-28T03:23:24.227Z,11.75
2022-09-28T03:26:28.351Z,11.45
2022-09-28T03:29:32.500Z,12.18
2022-09-28T03:32:40.693Z,12.57
2022-09-28T03:35:48.186Z,12.68
2022-09-28T03:38:54.491Z,12.38
2022-09-28T03:41:58.132Z,12.85
2022-09-28T03:45:01.934Z,13.60
2022-09-28T03:48:05.822Z,13.05
2022-09-28T03:51:13.943Z,13.85
2022-09-28T03:54:18.318Z,13.43
2022-09-28T03:57:22.011Z,12.45
2022-09-28T04:03:29.406Z,12.52
2022-09-28T04:06:34.995Z,13.63
2022-09-28T04:09:38.763Z,13.85
2022-09-28T04:12:42.398Z,13.57
2022-09-28T04:15:53.909Z,13.98
2022-09-28T04:18:59.120Z,14.23
2022-09-28T04:22:23.680Z,15.23
2022-09-28T04:25:27.390Z,14.02
2022-09-28T04:28:44.236Z,14.43
2022-09-28T04:31:49.917Z,14.27
2022-09-28T04:34:54.244Z,16.45
2022-09-28T04:38:00.243Z,16.45
2022-09-28T04:41:04.240Z,17.88
2022-09-28T04:44:08.522Z,17.10
2022-09-28T04:47:12.212Z,16.90
2022-09-28T04:50:35.620Z,16.80
2022-09-28T04:54:00.627Z,15.82
2022-09-28T04:57:05.463Z,16.70
2022-09-28T05:00:10.928Z,16.75
2022-09-28T05:03:15.903Z,15.77
2022-09-28T05:06:47.587Z,17.13
2022-09-28T05:09:54.525Z,16.05
2022-09-28T05:12:58.129Z,15.23
2022-09-28T05:16:05.470Z,15.82
2022-09-28T05:19:14.102Z,17.00
2022-09-28T05:22:18.646Z,16.75
2022-09-28T05:25:25.469Z,16.17
2022-09-28T05:28:41.647Z,15.95
2022-09-28T05:32:05.333Z,12.63
2022-09-28T05:35:20.927Z,16.73
2022-09-28T05:38:25.879Z,16.05
2022-09-28T05:41:31.494Z,17.23
2022-09-28T05:44:37.876Z,16.13
2022-09-28T05:47:43.232Z,17.15
2022-09-28T05:50:51.902Z,17.83
2022-09-28T05:53:56.222Z,15.82
2022-09-28T05:57:06.201Z,14.85
2022-09-28T06:00:11.302Z,16.42
2022-09-28T06:03:21.823Z,17.23
2022-09-28T06:06:25.553Z,17.42
2022-09-28T06:09:29.438Z,15.93
2022-09-28T06:12:40.699Z,15.27
2022-09-28T06:15:49.373Z,16.60
2022-09-28T06:18:53.278Z,16.02
2022-09-28T06:22:26.327Z,15.52
2022-09-28T06:25:41.313Z,17.45
2022-09-28T06:28:47.063Z,15.70
2022-09-28T06:31:50.847Z,13.80
2022-09-28T06:34:56.465Z,14.00
2022-09-28T06:38:02.103Z,14.27
2022-09-28T06:41:05.995Z,13.45
2022-09-28T06:47:34.622Z,13.25
2022-09-28T06:50:51.687Z,12.98
2022-09-28T06:54:17.114Z,13.05
2022-09-28T06:57:34.671Z,13.70
2022-09-28T07:00:41.386Z,12.07
2022-09-28T07:03:45.088Z,12.80
2022-09-28T07:07:17.911Z,11.52
2022-09-28T07:10:41.977Z,11.85
2022-09-28T07:14:05.885Z,11.38
2022-09-28T07:17:14.081Z,14.10
2022-09-28T07:20:19.994Z,11.88
2022-09-28T07:23:29.205Z,12.20
2022-09-28T07:27:08.947Z,12.43
2022-09-28T07:30:33.165Z,12.30
2022-09-28T07:33:51.310Z,11.60
2022-09-28T07:37:08.299Z,12.85
2022-09-28T07:40:25.732Z,10.50
2022-09-28T07:43:29.821Z,9.27
2022-09-28T07:46:34.325Z,11.63
2022-09-28T07:49:44.738Z,9.80
2022-09-28T07:52:54.085Z,10.88
2022-09-28T07:56:13.397Z,10.05
2022-09-28T07:59:24.467Z,9.85
2022-09-28T08:02:47.645Z,12.05
2022-09-28T08:06:02.934Z,11.68
2022-09-28T08:09:06.606Z,12.48
2022-09-28T08:12:33.694Z,11.40
2022-09-28T08:16:03.199Z,11.80
2022-09-28T08:19:51.553Z,11.52
2022-09-28T08:22:57.221Z,10.18
2022-09-28T08:26:00.916Z,11.48
2022-09-28T08:29:04.615Z,11.20
2022-09-28T08:32:26.339Z,9.93
2022-09-28T08:35:49.518Z,9.98
2022-09-28T08:39:09.135Z,9.57
2022-09-28T08:42:35.083Z,9.18
2022-09-28T08:45:59.300Z,8.90
2022-09-28T08:49:31.609Z,9.50
2022-09-28T08:53:07.332Z,9.32
2022-09-28T08:56:38.667Z,8.68
2022-09-28T08:59:50.792Z,9.23
2022-09-28T09:03:00.146Z,9.95
2022-09-28T09:09:39.618Z,8.70
2022-09-28T09:16:28.733Z,6.93
2022-09-28T09:20:10.369Z,7.30
2022-09-28T09:23:39.775Z,6.75
2022-09-28T09:26:44.960Z,6.18
2022-09-28T09:30:04.091Z,6.47
2022-09-28T09:33:31.533Z,6.15
2022-09-28T09:37:21.741Z,5.68
2022-09-28T09:41:00.791Z,6.03
2022-09-28T09:44:51.373Z,6.53
2022-09-28T09:48:02.306Z,5.63
2022-09-28T09:51:19.170Z,5.22
2022-09-28T09:54:28.138Z,4.60
2022-09-28T09:57:39.849Z,4.70
2022-09-28T10:01:09.384Z,5.20
2022-09-28T10:04:40.811Z,5.25
2022-09-28T10:08:01.952Z,4.47
2022-09-28T10:11:09.854Z,5.32
2022-09-28T10:14:19.460Z,3.67
2022-09-28T10:17:29.377Z,4.18
2022-09-28T10:20:53.288Z,4.13
2022-09-28T10:24:31.113Z,3.90
2022-09-28T10:27:37.774Z,4.30
2022-09-28T10:30:43.710Z,3.88
2022-09-28T10:33:47.665Z,3.97
2022-09-28T10:36:57.715Z,3.80
2022-09-28T10:40:04.095Z,3.50
2022-09-28T10:43:21.879Z,3.35
2022-09-28T10:46:26.027Z,3.35
2022-09-28T10:49:44.412Z,3.40
2022-09-28T10:52:52.361Z,3.47
2022-09-28T10:56:22.139Z,2.72
2022-09-28T10:59:46.088Z,2.90
2022-09-28T11:02:59.022Z,3.50
2022-09-28T11:09:30.538Z,2.88
2022-09-28T11:12:44.840Z,3.03
2022-09-28T11:15:49.632Z,2.70
2022-09-28T11:19:06.753Z,2.67
2022-09-28T11:22:22.765Z,2.20
2022-09-28T11:25:31.809Z,3.50
2022-09-28T11:28:38.878Z,2.40
2022-09-28T11:31:49.527Z,2.28
2022-09-28T11:35:00.310Z,1.55
2022-09-28T11:38:28.230Z,1.50
2022-09-28T11:42:17.387Z,1.70
2022-09-28T11:45:38.350Z,1.40
2022-09-28T11:48:47.142Z,1.30
2022-09-28T11:51:53.098Z,1.13
2022-09-28T11:55:00.905Z,1.27
2022-09-28T11:58:14.304Z,1.33
2022-09-28T12:01:27.146Z,1.70
2022-09-28T12:04:58.177Z,1.38
2022-09-28T12:08:10.292Z,1.55
2022-09-28T12:11:37.300Z,1.27
2022-09-28T12:15:04.372Z,1.17
2022-09-28T12:18:14.304Z,1.20
2022-09-28T12:21:33.979Z,1.45
2022-09-28T12:24:42.531Z,1.30
2022-09-28T12:27:52.003Z,1.77
2022-09-28T12:31:01.670Z,1.70
2022-09-28T12:34:06.001Z,1.85
2022-09-28T12:37:31.097Z,2.22
2022-09-28T12:40:43.046Z,1.80
2022-09-28T12:44:05.253Z,2.00
2022-09-28T12:47:31.963Z,1.90
2022-09-28T12:50:47.535Z,2.28
2022-09-28T12:54:07.240Z,1.58
2022-09-28T12:57:32.037Z,1.25
2022-09-28T13:00:45.157Z,1.40
2022-09-28T13:04:13.509Z,1.20
2022-09-28T13:07:26.166Z,1.42
2022-09-28T13:10:37.454Z,1.63
2022-09-28T13:13:49.342Z,1.38
2022-09-28T13:17:02.389Z,1.30
2022-09-28T13:20:22.671Z,1.75
2022-09-28T13:23:30.451Z,1.38
2022-09-28T13:26:38.899Z,1.48
2022-09-28T13:29:43.515Z,1.38
2022-09-28T13:32:51.284Z,1.25
2022-09-28T13:35:56.846Z,0.90
2022-09-28T13:39:01.734Z,0.60
2022-09-28T13:42:07.368Z,0.75
2022-09-28T13:45:43.891Z,1.30
2022-09-28T13:48:56.239Z,0.35
2022-09-28T13:52:07.736Z,0.50
2022-09-28T13:55:24.157Z,0.50
2022-09-28T13:58:32.745Z,0.45
2022-09-28T14:01:42.330Z,0.50
2022-09-28T14:04:57.784Z,0.65
2022-09-28T14:08:31.326Z,0.73
2022-09-28T14:11:45.500Z,0.50
2022-09-28T14:14:52.121Z,0.35
2022-09-28T14:18:11.375Z,0.22
2022-09-28T14:21:40.079Z,0.35
2022-09-28T14:25:07.833Z,0.40
2022-09-28T14:28:39.137Z,0.30
2022-09-28T14:31:44.698Z,0.40
2022-09-28T14:34:56.254Z,0.30
2022-09-28T14:38:18.589Z,0.80
2022-09-28T14:41:34.608Z,0.50
2022-09-28T14:45:10.773Z,1.40
2022-09-28T14:48:19.758Z,0.50
2022-09-28T14:51:45.869Z,0.40
2022-09-28T14:54:55.647Z,0.50
2022-09-28T14:58:01.205Z,0.70
2022-09-28T15:01:07.699Z,0.40
2022-09-28T15:04:13.896Z,0.57
2022-09-28T15:07:22.821Z,0.55
2022-09-28T15:10:32.518Z,0.77
2022-09-28T15:13:40.157Z,0.73
2022-09-28T15:16:43.846Z,0.82
2022-09-28T15:19:54.940Z,0.60
2022-09-28T15:23:00.561Z,0.82
2022-09-28T15:26:06.505Z,0.60
2022-09-28T15:29:19.458Z,0.30
2022-09-28T15:32:26.439Z,0.55
2022-09-28T15:35:28.391Z,1.45
2022-09-28T15:38:33.414Z,1.08
2022-09-28T15:41:37.265Z,0.52
2022-09-28T15:44:47.079Z,0.50
2022-09-28T15:47:51.742Z,3.15
2022-09-28T15:51:01.414Z,2.38
2022-09-28T15:54:13.659Z,1.05
2022-09-28T15:57:32.801Z,2.90
2022-09-28T16:00:39.580Z,3.00
2022-09-28T16:03:43.423Z,2.22
2022-09-28T16:07:06.837Z,2.50
2022-09-28T16:10:30.638Z,1.30
2022-09-28T16:13:34.680Z,0.75
2022-09-28T16:16:47.448Z,0.60
2022-09-28T16:19:51.090Z,0.80
2022-09-28T16:22:56.153Z,0.63
2022-09-28T16:26:02.691Z,0.38
2022-09-28T16:29:11.279Z,0.40
2022-09-28T16:32:41.067Z,0.55
2022-09-28T16:35:52.255Z,0.50
2022-09-28T16:38:55.877Z,0.40
2022-09-28T16:42:05.103Z,0.47
2022-09-28T16:45:14.749Z,0.70
2022-09-28T16:48:20.971Z,0.70
2022-09-28T16:51:25.075Z,0.30
2022-09-28T16:54:43.614Z,0.60
2022-09-28T16:57:49.617Z,0.70
2022-09-28T17:00:53.970Z,0.70
2022-09-28T17:03:59.534Z,0.80
2022-09-28T17:07:03.234Z,0.60
2022-09-28T17:10:17.038Z,0.82
2022-09-28T17:13:22.814Z,1.05
2022-09-28T17:19:56.259Z,0.88
2022-09-28T17:23:00.781Z,0.50
2022-09-28T17:26:05.302Z,0.40
2022-09-28T17:29:13.607Z,0.40
2022-09-28T17:32:20.109Z,0.30
2022-09-28T17:35:25.917Z,0.50
2022-09-28T17:38:29.765Z,0.73
2022-09-28T17:41:33.659Z,0.50
2022-09-28T17:44:37.285Z,0.45
2022-09-28T17:47:40.944Z,0.30
2022-09-28T17:50:47.677Z,0.70
2022-09-28T17:53:51.999Z,0.60
2022-09-28T17:56:55.595Z,0.35
2022-09-28T17:59:59.175Z,1.10
2022-09-28T18:03:02.844Z,0.73
2022-09-28T18:06:13.919Z,0.88
2022-09-28T18:09:24.129Z,0.65
2022-09-28T18:12:27.997Z,1.40
2022-09-28T18:15:31.873Z,0.50
2022-09-28T18:18:37.688Z,0.35
2022-09-28T18:21:43.238Z,0.45
2022-09-28T18:24:47.040Z,0.57
2022-09-28T18:27:52.496Z,0.75
2022-09-28T18:30:56.334Z,0.60
2022-09-28T18:34:02.206Z,0.68
2022-09-28T18:37:08.061Z,1.13
2022-09-28T18:40:14.677Z,0.68
2022-09-28T18:43:18.299Z,0.60
2022-09-28T18:46:25.199Z,0.73
2022-09-28T18:49:28.882Z,0.80
2022-09-28T18:52:37.408Z,2.95
2022-09-28T18:55:41.918Z,1.70
2022-09-28T18:58:47.319Z,2.00
2022-09-28T19:01:51.064Z,0.75
2022-09-28T19:04:54.830Z,0.73
2022-09-28T19:08:00.397Z,0.57
2022-09-28T19:11:08.929Z,0.90
2022-09-28T19:14:14.386Z,1.00
2022-09-28T19:17:18.111Z,0.75
2022-09-28T19:20:21.750Z,0.90
2022-09-28T19:23:27.858Z,0.88
2022-09-28T19:26:32.349Z,0.90
2022-09-28T19:29:35.955Z,1.10
2022-09-28T19:32:41.831Z,0.80
2022-09-28T19:35:45.453Z,1.20
2022-09-28T19:38:51.424Z,0.77
2022-09-28T19:41:56.982Z,1.02
2022-09-28T19:45:00.633Z,1.20
2022-09-28T19:48:04.234Z,1.30
2022-09-28T19:51:08.108Z,1.20
2022-09-28T19:54:13.762Z,1.35
2022-09-28T19:57:18.978Z,2.05
2022-09-28T20:00:22.866Z,1.60
2022-09-28T20:03:27.663Z,1.55
2022-09-28T20:06:33.112Z,1.50
2022-09-28T20:09:38.646Z,1.38
2022-09-28T20:12:42.507Z,1.23
2022-09-28T20:15:46.324Z,1.42
2022-09-28T20:18:50.771Z,1.60
2022-09-28T20:21:57.956Z,1.48
2022-09-28T20:25:03.695Z,1.80
2022-09-28T20:28:07.770Z,1.70
2022-09-28T20:34:17.246Z,1.85
2022-09-28T20:37:20.847Z,2.00
2022-09-28T20:40:26.620Z,1.60
2022-09-28T20:43:31.093Z,1.70
2022-09-28T20:46:35.135Z,1.88
2022-09-28T20:49:38.913Z,1.85
2022-09-28T20:52:42.510Z,1.90
2022-09-28T20:55:48.049Z,2.95
2022-09-28T20:58:52.655Z,2.20
2022-09-28T21:01:56.341Z,2.50
2022-09-28T21:05:00.203Z,2.35
2022-09-28T21:08:03.973Z,2.60
2022-09-28T21:11:09.877Z,2.58
2022-09-28T21:14:13.474Z,3.30
2022-09-28T21:17:17.110Z,3.13
2022-09-28T21:20:20.822Z,2.85
2022-09-28T21:23:25.168Z,2.90
2022-09-28T21:26:32.262Z,3.90
2022-09-28T21:29:35.909Z,2.90
2022-09-28T21:32:39.501Z,3.17
2022-09-28T21:35:43.122Z,3.53
2022-09-28T21:38:46.783Z,2.85
2022-09-28T21:41:52.338Z,3.13
2022-09-28T21:44:59.363Z,3.15
2022-09-28T21:48:03.412Z,3.53
2022-09-28T21:51:08.929Z,3.70
2022-09-28T21:54:13.267Z,3.40
2022-09-28T21:57:19.347Z,3.85
2022-09-28T22:00:24.551Z,4.05
2022-09-28T22:03:28.521Z,3.70
2022-09-28T22:09:35.513Z,4.10
2022-09-28T22:12:41.200Z,4.18
2022-09-28T22:15:44.858Z,4.50
2022-09-28T22:18:48.779Z,4.47
2022-09-28T22:21:52.495Z,4.15
2022-09-28T22:24:56.158Z,4.55
2022-09-28T22:28:02.122Z,5.20
2022-09-28T22:31:06.222Z,4.68
2022-09-28T22:34:11.029Z,4.90
2022-09-28T22:37:14.661Z,4.70
2022-09-28T22:40:19.515Z,4.70
2022-09-28T22:43:26.570Z,4.53
2022-09-28T22:46:32.309Z,4.38
2022-09-28T22:49:36.120Z,5.40
2022-09-28T22:52:39.730Z,4.95
2022-09-28T22:55:43.451Z,4.60
2022-09-28T22:58:49.325Z,5.32
2022-09-28T23:01:52.969Z,4.95
2022-09-28T23:04:56.637Z,5.47
2022-09-28T23:08:00.366Z,5.07
2022-09-28T23:11:04.733Z,5.05
2022-09-28T23:14:13.553Z,4.63
2022-09-28T23:17:17.169Z,5.60
2022-09-28T23:20:20.983Z,5.15
2022-09-28T23:23:25.158Z,5.75
2022-09-28T23:26:30.249Z,5.10
2022-09-28T23:29:35.787Z,5.47
2022-09-28T23:32:39.385Z,5.45
2022-09-28T23:35:43.400Z,5.40
2022-09-28T23:41:50.405Z,5.15
2022-09-28T23:44:55.976Z,5.97
2022-09-28T23:47:59.591Z,5.40
2022-09-28T23:51:03.989Z,6.20
2022-09-28T23:54:07.895Z,5.93
2022-09-28T23:57:11.473Z,5.60
